sensor_id;sensor_type;location;lat;lon;timestamp;P1;durP1;ratioP1;P2;durP2;ratioP2
17451;SDS011;8843;48.838;9.324;2023-11-21T00:01:00;4.83;;;1.60;;
17451;SDS011;8843;48.838;9.324;2023-11-21T00:03:29;8.70;;;2.57;;
17451;SDS011;8843;48.838;9.324;2023-11-21T00:05:56;6.30;;;1.87;;
17451;SDS011;8843;48.838;9.324;2023-11-21T00:08:24;6.90;;;1.90;;
17451;SDS011;8843;48.838;9.324;2023-11-21T00:10:51;3.47;;;1.80;;
17451;SDS011;8843;48.838;9.324;2023-11-21T00:13:18;4.73;;;2.03;;
17451;SDS011;8843;48.838;9.324;2023-11-21T00:15:44;3.97;;;2.10;;
17451;SDS011;8843;48.838;9.324;2023-11-21T00:18:11;4.10;;;2.10;;
17451;SDS011;8843;48.838;9.324;2023-11-21T00:20:39;6.93;;;2.33;;
17451;SDS011;8843;48.838;9.324;2023-11-21T00:23:05;6.20;;;2.07;;
17451;SDS011;8843;48.838;9.324;2023-11-21T00:25:36;5.67;;;1.90;;
17451;SDS011;8843;48.838;9.324;2023-11-21T00:28:03;4.30;;;1.60;;
17451;SDS011;8843;48.838;9.324;2023-11-21T00:30:30;2.60;;;1.80;;
17451;SDS011;8843;48.838;9.324;2023-11-21T00:32:58;2.77;;;1.50;;
17451;SDS011;8843;48.838;9.324;2023-11-21T00:35:25;2.47;;;1.87;;
17451;SDS011;8843;48.838;9.324;2023-11-21T00:37:51;4.23;;;2.10;;
17451;SDS011;8843;48.838;9.324;2023-11-21T00:40:18;2.90;;;1.60;;
17451;SDS011;8843;48.838;9.324;2023-11-21T00:42:47;3.67;;;1.70;;
17451;SDS011;8843;48.838;9.324;2023-11-21T00:45:14;1.93;;;1.40;;
17451;SDS011;8843;48.838;9.324;2023-11-21T00:47:41;7.20;;;2.10;;
17451;SDS011;8843;48.838;9.324;2023-11-21T00:50:08;7.57;;;2.30;;
17451;SDS011;8843;48.838;9.324;2023-11-21T00:52:35;5.40;;;2.00;;
17451;SDS011;8843;48.838;9.324;2023-11-21T00:55:02;8.40;;;2.00;;
17451;SDS011;8843;48.838;9.324;2023-11-21T00:57:30;3.27;;;1.90;;
17451;SDS011;8843;48.838;9.324;2023-11-21T00:59:58;4.33;;;1.53;;
17451;SDS011;8843;48.838;9.324;2023-11-21T01:02:25;3.70;;;2.23;;
17451;SDS011;8843;48.838;9.324;2023-11-21T01:04:52;3.60;;;1.80;;
17451;SDS011;8843;48.838;9.324;2023-11-21T01:07:18;5.53;;;1.70;;
17451;SDS011;8843;48.838;9.324;2023-11-21T01:09:46;4.53;;;2.23;;
17451;SDS011;8843;48.838;9.324;2023-11-21T01:12:13;4.87;;;2.00;;
17451;SDS011;8843;48.838;9.324;2023-11-21T01:14:42;5.73;;;1.90;;
17451;SDS011;8843;48.838;9.324;2023-11-21T01:17:11;4.03;;;2.00;;
17451;SDS011;8843;48.838;9.324;2023-11-21T01:19:38;4.33;;;2.10;;
17451;SDS011;8843;48.838;9.324;2023-11-21T01:22:05;3.83;;;2.03;;
17451;SDS011;8843;48.838;9.324;2023-11-21T01:24:32;2.90;;;1.77;;
17451;SDS011;8843;48.838;9.324;2023-11-21T01:26:59;3.10;;;1.77;;
17451;SDS011;8843;48.838;9.324;2023-11-21T01:29:25;2.93;;;1.60;;
17451;SDS011;8843;48.838;9.324;2023-11-21T01:31:53;3.50;;;1.73;;
17451;SDS011;8843;48.838;9.324;2023-11-21T01:34:21;3.73;;;1.70;;
17451;SDS011;8843;48.838;9.324;2023-11-21T01:36:48;2.43;;;1.60;;
17451;SDS011;8843;48.838;9.324;2023-11-21T01:39:15;2.03;;;1.50;;
17451;SDS011;8843;48.838;9.324;2023-11-21T01:41:48;3.97;;;1.60;;
17451;SDS011;8843;48.838;9.324;2023-11-21T01:44:15;3.27;;;1.50;;
17451;SDS011;8843;48.838;9.324;2023-11-21T01:46:42;4.63;;;1.47;;
17451;SDS011;8843;48.838;9.324;2023-11-21T01:49:09;3.20;;;1.40;;
17451;SDS011;8843;48.838;9.324;2023-11-21T01:51:39;1.60;;;1.50;;
17451;SDS011;8843;48.838;9.324;2023-11-21T01:54:08;4.10;;;1.63;;
17451;SDS011;8843;48.838;9.324;2023-11-21T01:56:36;6.70;;;1.27;;
17451;SDS011;8843;48.838;9.324;2023-11-21T01:59:04;3.30;;;1.33;;
17451;SDS011;8843;48.838;9.324;2023-11-21T02:01:32;4.47;;;1.40;;
17451;SDS011;8843;48.838;9.324;2023-11-21T02:03:59;2.33;;;1.70;;
17451;SDS011;8843;48.838;9.324;2023-11-21T02:06:26;1.77;;;1.40;;
17451;SDS011;8843;48.838;9.324;2023-11-21T02:08:57;2.43;;;1.37;;
17451;SDS011;8843;48.838;9.324;2023-11-21T02:11:24;1.43;;;1.20;;
17451;SDS011;8843;48.838;9.324;2023-11-21T02:13:52;1.43;;;1.30;;
17451;SDS011;8843;48.838;9.324;2023-11-21T02:16:20;4.43;;;1.40;;
17451;SDS011;8843;48.838;9.324;2023-11-21T02:18:47;3.53;;;1.50;;
17451;SDS011;8843;48.838;9.324;2023-11-21T02:21:14;1.97;;;1.10;;
17451;SDS011;8843;48.838;9.324;2023-11-21T02:23:43;2.00;;;1.33;;
17451;SDS011;8843;48.838;9.324;2023-11-21T02:26:11;2.20;;;1.40;;
17451;SDS011;8843;48.838;9.324;2023-11-21T02:28:39;1.73;;;1.60;;
17451;SDS011;8843;48.838;9.324;2023-11-21T02:31:06;1.43;;;1.27;;
17451;SDS011;8843;48.838;9.324;2023-11-21T02:33:32;4.30;;;1.27;;
17451;SDS011;8843;48.838;9.324;2023-11-21T02:35:59;2.50;;;1.50;;
17451;SDS011;8843;48.838;9.324;2023-11-21T02:38:26;5.10;;;1.40;;
17451;SDS011;8843;48.838;9.324;2023-11-21T02:40:56;1.90;;;1.37;;
17451;SDS011;8843;48.838;9.324;2023-11-21T02:43:24;4.47;;;1.40;;
17451;SDS011;8843;48.838;9.324;2023-11-21T02:45:51;3.50;;;1.30;;
17451;SDS011;8843;48.838;9.324;2023-11-21T02:48:17;4.17;;;1.30;;
17451;SDS011;8843;48.838;9.324;2023-11-21T02:50:44;2.43;;;1.60;;
17451;SDS011;8843;48.838;9.324;2023-11-21T02:53:11;0.97;;;0.97;;
17451;SDS011;8843;48.838;9.324;2023-11-21T02:55:38;2.47;;;1.43;;
17451;SDS011;8843;48.838;9.324;2023-11-21T02:58:06;1.80;;;1.10;;
17451;SDS011;8843;48.838;9.324;2023-11-21T03:00:33;2.37;;;1.17;;
17451;SDS011;8843;48.838;9.324;2023-11-21T03:03:00;1.73;;;1.10;;
17451;SDS011;8843;48.838;9.324;2023-11-21T03:05:27;4.67;;;1.30;;
17451;SDS011;8843;48.838;9.324;2023-11-21T03:07:54;2.73;;;1.10;;
17451;SDS011;8843;48.838;9.324;2023-11-21T03:10:21;1.83;;;1.10;;
17451;SDS011;8843;48.838;9.324;2023-11-21T03:12:48;1.83;;;1.10;;
17451;SDS011;8843;48.838;9.324;2023-11-21T03:15:16;3.67;;;1.10;;
17451;SDS011;8843;48.838;9.324;2023-11-21T03:17:43;2.50;;;1.00;;
17451;SDS011;8843;48.838;9.324;2023-11-21T03:20:10;1.53;;;1.10;;
17451;SDS011;8843;48.838;9.324;2023-11-21T03:22:38;2.60;;;1.10;;
17451;SDS011;8843;48.838;9.324;2023-11-21T03:25:06;2.87;;;1.10;;
17451;SDS011;8843;48.838;9.324;2023-11-21T03:27:36;3.67;;;1.30;;
17451;SDS011;8843;48.838;9.324;2023-11-21T03:30:04;1.63;;;1.23;;
17451;SDS011;8843;48.838;9.324;2023-11-21T03:32:33;1.27;;;1.17;;
17451;SDS011;8843;48.838;9.324;2023-11-21T03:35:00;1.47;;;1.20;;
17451;SDS011;8843;48.838;9.324;2023-11-21T03:37:28;2.67;;;1.40;;
17451;SDS011;8843;48.838;9.324;2023-11-21T03:39:55;2.30;;;1.30;;
17451;SDS011;8843;48.838;9.324;2023-11-21T03:42:22;1.43;;;1.10;;
17451;SDS011;8843;48.838;9.324;2023-11-21T03:44:50;2.17;;;1.03;;
17451;SDS011;8843;48.838;9.324;2023-11-21T03:47:17;4.30;;;1.50;;
17451;SDS011;8843;48.838;9.324;2023-11-21T03:49:46;1.20;;;1.10;;
17451;SDS011;8843;48.838;9.324;2023-11-21T03:52:13;1.40;;;1.20;;
17451;SDS011;8843;48.838;9.324;2023-11-21T03:54:40;1.10;;;1.00;;
17451;SDS011;8843;48.838;9.324;2023-11-21T03:57:08;1.33;;;1.07;;
17451;SDS011;8843;48.838;9.324;2023-11-21T03:59:35;1.37;;;1.20;;
17451;SDS011;8843;48.838;9.324;2023-11-21T04:02:03;1.87;;;1.30;;
17451;SDS011;8843;48.838;9.324;2023-11-21T04:04:30;2.57;;;1.30;;
17451;SDS011;8843;48.838;9.324;2023-11-21T04:06:58;1.90;;;1.10;;
17451;SDS011;8843;48.838;9.324;2023-11-21T04:09:25;2.67;;;1.30;;
17451;SDS011;8843;48.838;9.324;2023-11-21T04:11:52;2.33;;;1.30;;
17451;SDS011;8843;48.838;9.324;2023-11-21T04:14:19;2.33;;;1.10;;
17451;SDS011;8843;48.838;9.324;2023-11-21T04:16:46;3.00;;;1.20;;
17451;SDS011;8843;48.838;9.324;2023-11-21T04:19:13;1.43;;;1.00;;
17451;SDS011;8843;48.838;9.324;2023-11-21T04:21:40;2.10;;;1.10;;
17451;SDS011;8843;48.838;9.324;2023-11-21T04:24:09;1.53;;;1.13;;
17451;SDS011;8843;48.838;9.324;2023-11-21T04:26:36;2.07;;;1.10;;
17451;SDS011;8843;48.838;9.324;2023-11-21T04:29:03;1.13;;;1.03;;
17451;SDS011;8843;48.838;9.324;2023-11-21T04:31:30;1.73;;;1.20;;
17451;SDS011;8843;48.838;9.324;2023-11-21T04:33:57;2.00;;;1.07;;
17451;SDS011;8843;48.838;9.324;2023-11-21T04:36:25;4.50;;;1.50;;
17451;SDS011;8843;48.838;9.324;2023-11-21T04:38:51;2.13;;;1.07;;
17451;SDS011;8843;48.838;9.324;2023-11-21T04:41:20;1.20;;;1.00;;
17451;SDS011;8843;48.838;9.324;2023-11-21T04:43:46;3.23;;;1.20;;
17451;SDS011;8843;48.838;9.324;2023-11-21T04:46:14;0.90;;;0.90;;
17451;SDS011;8843;48.838;9.324;2023-11-21T04:48:41;3.90;;;1.00;;
17451;SDS011;8843;48.838;9.324;2023-11-21T04:51:08;3.93;;;1.10;;
17451;SDS011;8843;48.838;9.324;2023-11-21T04:53:36;2.20;;;1.10;;
17451;SDS011;8843;48.838;9.324;2023-11-21T04:56:04;1.60;;;1.00;;
17451;SDS011;8843;48.838;9.324;2023-11-21T04:58:33;2.03;;;1.13;;
17451;SDS011;8843;48.838;9.324;2023-11-21T05:01:00;2.30;;;1.10;;
17451;SDS011;8843;48.838;9.324;2023-11-21T05:03:28;2.67;;;1.07;;
17451;SDS011;8843;48.838;9.324;2023-11-21T05:05:55;1.87;;;1.00;;
17451;SDS011;8843;48.838;9.324;2023-11-21T05:08:22;1.00;;;0.83;;
17451;SDS011;8843;48.838;9.324;2023-11-21T05:10:49;1.10;;;1.00;;
17451;SDS011;8843;48.838;9.324;2023-11-21T05:13:17;2.57;;;1.10;;
17451;SDS011;8843;48.838;9.324;2023-11-21T05:15:45;1.90;;;1.10;;
17451;SDS011;8843;48.838;9.324;2023-11-21T05:18:12;1.37;;;1.20;;
17451;SDS011;8843;48.838;9.324;2023-11-21T05:20:39;1.33;;;1.10;;
17451;SDS011;8843;48.838;9.324;2023-11-21T05:23:07;2.10;;;1.20;;
17451;SDS011;8843;48.838;9.324;2023-11-21T05:25:34;2.50;;;1.30;;
17451;SDS011;8843;48.838;9.324;2023-11-21T05:28:01;2.27;;;1.10;;
17451;SDS011;8843;48.838;9.324;2023-11-21T05:30:29;2.10;;;1.10;;
17451;SDS011;8843;48.838;9.324;2023-11-21T05:32:57;3.00;;;1.20;;
17451;SDS011;8843;48.838;9.324;2023-11-21T05:35:24;2.57;;;1.17;;
17451;SDS011;8843;48.838;9.324;2023-11-21T05:37:51;1.83;;;0.90;;
17451;SDS011;8843;48.838;9.324;2023-11-21T05:40:18;1.73;;;0.90;;
17451;SDS011;8843;48.838;9.324;2023-11-21T05:42:47;1.40;;;1.20;;
17451;SDS011;8843;48.838;9.324;2023-11-21T05:45:14;3.07;;;1.30;;
17451;SDS011;8843;48.838;9.324;2023-11-21T05:47:42;0.87;;;0.87;;
17451;SDS011;8843;48.838;9.324;2023-11-21T05:50:12;2.70;;;1.30;;
17451;SDS011;8843;48.838;9.324;2023-11-21T05:52:40;1.27;;;1.17;;
17451;SDS011;8843;48.838;9.324;2023-11-21T05:55:08;1.73;;;1.40;;
17451;SDS011;8843;48.838;9.324;2023-11-21T05:57:35;1.20;;;1.10;;
17451;SDS011;8843;48.838;9.324;2023-11-21T06:00:04;1.43;;;1.00;;
17451;SDS011;8843;48.838;9.324;2023-11-21T06:02:36;2.40;;;1.10;;
17451;SDS011;8843;48.838;9.324;2023-11-21T06:05:04;3.43;;;1.20;;
17451;SDS011;8843;48.838;9.324;2023-11-21T06:07:33;1.13;;;1.03;;
17451;SDS011;8843;48.838;9.324;2023-11-21T06:10:00;2.50;;;1.17;;
17451;SDS011;8843;48.838;9.324;2023-11-21T06:12:28;2.33;;;1.53;;
17451;SDS011;8843;48.838;9.324;2023-11-21T06:14:55;1.57;;;1.10;;
17451;SDS011;8843;48.838;9.324;2023-11-21T06:17:21;3.10;;;1.40;;
17451;SDS011;8843;48.838;9.324;2023-11-21T06:19:50;1.70;;;1.30;;
17451;SDS011;8843;48.838;9.324;2023-11-21T06:22:17;2.43;;;1.57;;
17451;SDS011;8843;48.838;9.324;2023-11-21T06:24:46;1.23;;;1.10;;
17451;SDS011;8843;48.838;9.324;2023-11-21T06:27:13;2.97;;;1.10;;
17451;SDS011;8843;48.838;9.324;2023-11-21T06:29:41;1.40;;;1.20;;
17451;SDS011;8843;48.838;9.324;2023-11-21T06:32:08;2.60;;;1.40;;
17451;SDS011;8843;48.838;9.324;2023-11-21T06:34:35;2.40;;;1.40;;
17451;SDS011;8843;48.838;9.324;2023-11-21T06:37:02;1.50;;;1.13;;
17451;SDS011;8843;48.838;9.324;2023-11-21T06:39:30;3.57;;;1.40;;
17451;SDS011;8843;48.838;9.324;2023-11-21T06:42:02;2.87;;;1.50;;
17451;SDS011;8843;48.838;9.324;2023-11-21T06:44:29;2.60;;;1.47;;
17451;SDS011;8843;48.838;9.324;2023-11-21T06:46:56;1.80;;;1.23;;
17451;SDS011;8843;48.838;9.324;2023-11-21T06:49:23;2.73;;;1.50;;
17451;SDS011;8843;48.838;9.324;2023-11-21T06:51:49;3.13;;;2.37;;
17451;SDS011;8843;48.838;9.324;2023-11-21T06:54:16;1.43;;;1.30;;
17451;SDS011;8843;48.838;9.324;2023-11-21T06:56:46;1.40;;;1.30;;
17451;SDS011;8843;48.838;9.324;2023-11-21T06:59:15;2.33;;;1.63;;
17451;SDS011;8843;48.838;9.324;2023-11-21T07:01:43;2.60;;;1.43;;
17451;SDS011;8843;48.838;9.324;2023-11-21T07:04:10;2.07;;;1.40;;
17451;SDS011;8843;48.838;9.324;2023-11-21T07:06:41;2.10;;;1.57;;
17451;SDS011;8843;48.838;9.324;2023-11-21T07:09:08;1.77;;;1.30;;
17451;SDS011;8843;48.838;9.324;2023-11-21T07:11:37;2.43;;;1.40;;
17451;SDS011;8843;48.838;9.324;2023-11-21T07:14:04;2.13;;;1.30;;
17451;SDS011;8843;48.838;9.324;2023-11-21T07:16:33;2.30;;;1.57;;
17451;SDS011;8843;48.838;9.324;2023-11-21T07:19:02;1.80;;;1.40;;
17451;SDS011;8843;48.838;9.324;2023-11-21T07:21:31;4.27;;;1.37;;
17451;SDS011;8843;48.838;9.324;2023-11-21T07:23:58;2.57;;;1.17;;
17451;SDS011;8843;48.838;9.324;2023-11-21T07:26:24;3.93;;;1.33;;
17451;SDS011;8843;48.838;9.324;2023-11-21T07:28:51;2.13;;;1.20;;
17451;SDS011;8843;48.838;9.324;2023-11-21T07:31:18;2.37;;;1.40;;
17451;SDS011;8843;48.838;9.324;2023-11-21T07:33:46;2.97;;;1.50;;
17451;SDS011;8843;48.838;9.324;2023-11-21T07:36:14;1.80;;;1.40;;
17451;SDS011;8843;48.838;9.324;2023-11-21T07:38:43;3.00;;;1.30;;
17451;SDS011;8843;48.838;9.324;2023-11-21T07:41:10;2.63;;;1.53;;
17451;SDS011;8843;48.838;9.324;2023-11-21T07:43:41;2.43;;;1.43;;
17451;SDS011;8843;48.838;9.324;2023-11-21T07:46:08;1.60;;;1.50;;
17451;SDS011;8843;48.838;9.324;2023-11-21T07:48:35;1.40;;;1.30;;
17451;SDS011;8843;48.838;9.324;2023-11-21T07:51:03;1.57;;;1.20;;
17451;SDS011;8843;48.838;9.324;2023-11-21T07:53:30;1.77;;;1.20;;
17451;SDS011;8843;48.838;9.324;2023-11-21T07:55:57;2.43;;;1.33;;
17451;SDS011;8843;48.838;9.324;2023-11-21T07:58:25;2.43;;;1.50;;
17451;SDS011;8843;48.838;9.324;2023-11-21T08:00:51;2.77;;;1.40;;
17451;SDS011;8843;48.838;9.324;2023-11-21T08:03:18;2.30;;;1.50;;
17451;SDS011;8843;48.838;9.324;2023-11-21T08:05:46;3.47;;;1.40;;
17451;SDS011;8843;48.838;9.324;2023-11-21T08:08:14;1.50;;;1.40;;
17451;SDS011;8843;48.838;9.324;2023-11-21T08:10:43;2.67;;;1.60;;
17451;SDS011;8843;48.838;9.324;2023-11-21T08:13:21;2.70;;;1.50;;
17451;SDS011;8843;48.838;9.324;2023-11-21T08:15:48;3.40;;;1.40;;
17451;SDS011;8843;48.838;9.324;2023-11-21T08:18:15;1.93;;;1.53;;
17451;SDS011;8843;48.838;9.324;2023-11-21T08:20:42;2.90;;;1.40;;
17451;SDS011;8843;48.838;9.324;2023-11-21T08:23:12;2.50;;;1.30;;
17451;SDS011;8843;48.838;9.324;2023-11-21T08:25:42;1.77;;;1.40;;
17451;SDS011;8843;48.838;9.324;2023-11-21T08:28:09;3.70;;;1.50;;
17451;SDS011;8843;48.838;9.324;2023-11-21T08:30:36;1.30;;;1.20;;
17451;SDS011;8843;48.838;9.324;2023-11-21T08:33:04;1.63;;;1.50;;
17451;SDS011;8843;48.838;9.324;2023-11-21T08:35:32;1.30;;;1.20;;
17451;SDS011;8843;48.838;9.324;2023-11-21T08:37:59;2.13;;;1.47;;
17451;SDS011;8843;48.838;9.324;2023-11-21T08:40:30;2.03;;;1.77;;
17451;SDS011;8843;48.838;9.324;2023-11-21T08:42:57;4.23;;;1.93;;
17451;SDS011;8843;48.838;9.324;2023-11-21T08:45:24;3.27;;;1.57;;
17451;SDS011;8843;48.838;9.324;2023-11-21T08:47:52;3.50;;;1.60;;
17451;SDS011;8843;48.838;9.324;2023-11-21T08:50:20;2.87;;;1.90;;
17451;SDS011;8843;48.838;9.324;2023-11-21T08:52:47;1.97;;;1.80;;
17451;SDS011;8843;48.838;9.324;2023-11-21T08:55:14;3.23;;;2.10;;
17451;SDS011;8843;48.838;9.324;2023-11-21T08:57:43;2.20;;;2.00;;
17451;SDS011;8843;48.838;9.324;2023-11-21T09:00:10;3.93;;;2.20;;
17451;SDS011;8843;48.838;9.324;2023-11-21T09:02:38;2.33;;;1.90;;
17451;SDS011;8843;48.838;9.324;2023-11-21T09:05:07;2.93;;;1.93;;
17451;SDS011;8843;48.838;9.324;2023-11-21T09:07:34;2.93;;;2.03;;
17451;SDS011;8843;48.838;9.324;2023-11-21T09:10:01;2.83;;;2.03;;
17451;SDS011;8843;48.838;9.324;2023-11-21T09:12:28;3.13;;;2.30;;
17451;SDS011;8843;48.838;9.324;2023-11-21T09:14:59;3.40;;;2.10;;
17451;SDS011;8843;48.838;9.324;2023-11-21T09:17:25;4.33;;;2.10;;
17451;SDS011;8843;48.838;9.324;2023-11-21T09:19:52;4.90;;;2.37;;
17451;SDS011;8843;48.838;9.324;2023-11-21T09:22:19;3.13;;;2.00;;
17451;SDS011;8843;48.838;9.324;2023-11-21T09:24:46;2.60;;;1.90;;
17451;SDS011;8843;48.838;9.324;2023-11-21T09:27:13;4.23;;;2.20;;
17451;SDS011;8843;48.838;9.324;2023-11-21T09:29:40;4.40;;;2.57;;
17451;SDS011;8843;48.838;9.324;2023-11-21T09:32:09;2.90;;;2.13;;
17451;SDS011;8843;48.838;9.324;2023-11-21T09:34:37;2.73;;;2.30;;
17451;SDS011;8843;48.838;9.324;2023-11-21T09:37:04;3.90;;;2.37;;
17451;SDS011;8843;48.838;9.324;2023-11-21T09:39:31;3.57;;;2.40;;
17451;SDS011;8843;48.838;9.324;2023-11-21T09:42:02;4.67;;;2.30;;
17451;SDS011;8843;48.838;9.324;2023-11-21T09:44:36;2.00;;;1.90;;
17451;SDS011;8843;48.838;9.324;2023-11-21T09:47:14;4.27;;;2.10;;
17451;SDS011;8843;48.838;9.324;2023-11-21T09:49:42;4.40;;;1.80;;
17451;SDS011;8843;48.838;9.324;2023-11-21T09:52:15;2.37;;;1.60;;
17451;SDS011;8843;48.838;9.324;2023-11-21T09:54:50;2.07;;;1.90;;
17451;SDS011;8843;48.838;9.324;2023-11-21T09:57:19;2.37;;;2.10;;
17451;SDS011;8843;48.838;9.324;2023-11-21T09:59:48;2.23;;;2.03;;
17451;SDS011;8843;48.838;9.324;2023-11-21T10:02:21;1.83;;;1.70;;
17451;SDS011;8843;48.838;9.324;2023-11-21T10:04:51;1.70;;;1.60;;
17451;SDS011;8843;48.838;9.324;2023-11-21T10:07:19;1.80;;;1.50;;
17451;SDS011;8843;48.838;9.324;2023-11-21T10:09:47;2.77;;;1.37;;
17451;SDS011;8843;48.838;9.324;2023-11-21T10:12:14;2.23;;;1.57;;
17451;SDS011;8843;48.838;9.324;2023-11-21T10:14:42;1.10;;;1.10;;
17451;SDS011;8843;48.838;9.324;2023-11-21T10:17:10;1.30;;;1.20;;
17451;SDS011;8843;48.838;9.324;2023-11-21T10:19:40;1.87;;;1.37;;
17451;SDS011;8843;48.838;9.324;2023-11-21T10:22:07;1.57;;;1.30;;
17451;SDS011;8843;48.838;9.324;2023-11-21T10:24:34;1.30;;;1.20;;
17451;SDS011;8843;48.838;9.324;2023-11-21T10:27:02;1.90;;;1.53;;
17451;SDS011;8843;48.838;9.324;2023-11-21T10:29:30;1.40;;;1.30;;
17451;SDS011;8843;48.838;9.324;2023-11-21T10:32:01;2.60;;;1.40;;
17451;SDS011;8843;48.838;9.324;2023-11-21T10:34:28;1.37;;;1.30;;
17451;SDS011;8843;48.838;9.324;2023-11-21T10:36:56;1.67;;;1.50;;
17451;SDS011;8843;48.838;9.324;2023-11-21T10:39:24;2.27;;;1.40;;
17451;SDS011;8843;48.838;9.324;2023-11-21T10:41:55;2.27;;;1.40;;
17451;SDS011;8843;48.838;9.324;2023-11-21T10:44:22;1.43;;;1.33;;
17451;SDS011;8843;48.838;9.324;2023-11-21T10:46:50;1.67;;;1.57;;
17451;SDS011;8843;48.838;9.324;2023-11-21T10:49:21;1.70;;;1.60;;
17451;SDS011;8843;48.838;9.324;2023-11-21T10:51:49;1.30;;;1.20;;
17451;SDS011;8843;48.838;9.324;2023-11-21T10:54:19;1.30;;;1.20;;
17451;SDS011;8843;48.838;9.324;2023-11-21T10:56:47;1.00;;;1.00;;
17451;SDS011;8843;48.838;9.324;2023-11-21T10:59:17;1.03;;;0.90;;
17451;SDS011;8843;48.838;9.324;2023-11-21T11:01:46;0.80;;;0.80;;
17451;SDS011;8843;48.838;9.324;2023-11-21T11:04:14;0.80;;;0.80;;
17451;SDS011;8843;48.838;9.324;2023-11-21T11:06:44;0.70;;;0.70;;
17451;SDS011;8843;48.838;9.324;2023-11-21T11:09:12;0.70;;;0.70;;
17451;SDS011;8843;48.838;9.324;2023-11-21T11:11:42;1.00;;;1.00;;
17451;SDS011;8843;48.838;9.324;2023-11-21T11:14:10;1.17;;;0.90;;
17451;SDS011;8843;48.838;9.324;2023-11-21T11:16:38;1.37;;;1.27;;
17451;SDS011;8843;48.838;9.324;2023-11-21T11:19:06;1.30;;;1.30;;
17451;SDS011;8843;48.838;9.324;2023-11-21T11:21:37;1.57;;;1.47;;
17451;SDS011;8843;48.838;9.324;2023-11-21T11:24:13;2.83;;;1.30;;
17451;SDS011;8843;48.838;9.324;2023-11-21T11:26:56;1.63;;;1.40;;
17451;SDS011;8843;48.838;9.324;2023-11-21T11:29:30;1.93;;;1.40;;
17451;SDS011;8843;48.838;9.324;2023-11-21T11:32:09;2.63;;;1.60;;
17451;SDS011;8843;48.838;9.324;2023-11-21T11:34:44;1.53;;;1.43;;
17451;SDS011;8843;48.838;9.324;2023-11-21T11:37:15;1.47;;;1.37;;
17451;SDS011;8843;48.838;9.324;2023-11-21T11:39:42;1.27;;;1.17;;
17451;SDS011;8843;48.838;9.324;2023-11-21T11:42:13;1.50;;;1.27;;
17451;SDS011;8843;48.838;9.324;2023-11-21T11:44:48;1.33;;;1.17;;
17451;SDS011;8843;48.838;9.324;2023-11-21T11:47:16;1.10;;;1.10;;
17451;SDS011;8843;48.838;9.324;2023-11-21T11:49:55;1.53;;;1.40;;
17451;SDS011;8843;48.838;9.324;2023-11-21T11:52:32;1.20;;;1.10;;
17451;SDS011;8843;48.838;9.324;2023-11-21T11:55:04;1.23;;;1.13;;
17451;SDS011;8843;48.838;9.324;2023-11-21T11:57:34;1.40;;;1.30;;
17451;SDS011;8843;48.838;9.324;2023-11-21T12:00:11;1.30;;;1.20;;
17451;SDS011;8843;48.838;9.324;2023-11-21T12:02:44;2.00;;;1.73;;
17451;SDS011;8843;48.838;9.324;2023-11-21T12:05:12;1.20;;;1.20;;
17451;SDS011;8843;48.838;9.324;2023-11-21T12:07:44;1.30;;;1.23;;
17451;SDS011;8843;48.838;9.324;2023-11-21T12:10:15;1.53;;;1.43;;
17451;SDS011;8843;48.838;9.324;2023-11-21T12:12:46;1.77;;;1.50;;
17451;SDS011;8843;48.838;9.324;2023-11-21T12:15:14;1.93;;;1.83;;
17451;SDS011;8843;48.838;9.324;2023-11-21T12:17:41;1.70;;;1.60;;
17451;SDS011;8843;48.838;9.324;2023-11-21T12:20:10;1.70;;;1.60;;
17451;SDS011;8843;48.838;9.324;2023-11-21T12:22:43;1.83;;;1.70;;
17451;SDS011;8843;48.838;9.324;2023-11-21T12:25:13;3.43;;;2.13;;
17451;SDS011;8843;48.838;9.324;2023-11-21T12:27:43;2.60;;;1.53;;
17451;SDS011;8843;48.838;9.324;2023-11-21T12:30:14;2.67;;;1.60;;
17451;SDS011;8843;48.838;9.324;2023-11-21T12:32:42;1.83;;;1.50;;
17451;SDS011;8843;48.838;9.324;2023-11-21T12:35:11;1.60;;;1.50;;
17451;SDS011;8843;48.838;9.324;2023-11-21T12:37:38;1.60;;;1.50;;
17451;SDS011;8843;48.838;9.324;2023-11-21T12:40:08;1.60;;;1.50;;
17451;SDS011;8843;48.838;9.324;2023-11-21T12:42:39;1.93;;;1.80;;
17451;SDS011;8843;48.838;9.324;2023-11-21T12:45:18;1.93;;;1.63;;
17451;SDS011;8843;48.838;9.324;2023-11-21T12:47:46;1.70;;;1.60;;
17451;SDS011;8843;48.838;9.324;2023-11-21T12:50:13;2.87;;;1.67;;
17451;SDS011;8843;48.838;9.324;2023-11-21T12:52:41;2.90;;;2.00;;
17451;SDS011;8843;48.838;9.324;2023-11-21T12:55:13;1.80;;;1.70;;
17451;SDS011;8843;48.838;9.324;2023-11-21T12:57:42;2.00;;;1.90;;
17451;SDS011;8843;48.838;9.324;2023-11-21T13:00:10;2.00;;;1.90;;
17451;SDS011;8843;48.838;9.324;2023-11-21T13:02:51;1.80;;;1.70;;
17451;SDS011;8843;48.838;9.324;2023-11-21T13:05:26;2.63;;;1.90;;
17451;SDS011;8843;48.838;9.324;2023-11-21T13:07:54;1.70;;;1.60;;
17451;SDS011;8843;48.838;9.324;2023-11-21T13:10:23;2.47;;;2.27;;
17451;SDS011;8843;48.838;9.324;2023-11-21T13:12:54;2.37;;;2.17;;
17451;SDS011;8843;48.838;9.324;2023-11-21T13:15:24;2.47;;;2.30;;
17451;SDS011;8843;48.838;9.324;2023-11-21T13:17:52;2.43;;;2.23;;
17451;SDS011;8843;48.838;9.324;2023-11-21T13:20:21;2.97;;;2.77;;
17451;SDS011;8843;48.838;9.324;2023-11-21T13:22:49;3.23;;;2.80;;
17451;SDS011;8843;48.838;9.324;2023-11-21T13:25:19;2.50;;;2.30;;
17451;SDS011;8843;48.838;9.324;2023-11-21T13:27:47;2.50;;;2.30;;
17451;SDS011;8843;48.838;9.324;2023-11-21T13:30:14;2.20;;;2.00;;
17451;SDS011;8843;48.838;9.324;2023-11-21T13:32:44;2.10;;;2.00;;
17451;SDS011;8843;48.838;9.324;2023-11-21T13:35:11;2.40;;;2.00;;
17451;SDS011;8843;48.838;9.324;2023-11-21T13:37:48;2.40;;;2.20;;
17451;SDS011;8843;48.838;9.324;2023-11-21T13:40:19;2.50;;;2.27;;
17451;SDS011;8843;48.838;9.324;2023-11-21T13:42:51;3.53;;;2.53;;
17451;SDS011;8843;48.838;9.324;2023-11-21T13:45:20;3.80;;;2.40;;
17451;SDS011;8843;48.838;9.324;2023-11-21T13:47:49;2.60;;;2.40;;
17451;SDS011;8843;48.838;9.324;2023-11-21T13:50:23;2.50;;;2.30;;
17451;SDS011;8843;48.838;9.324;2023-11-21T13:52:55;2.60;;;2.40;;
17451;SDS011;8843;48.838;9.324;2023-11-21T13:55:23;2.50;;;2.30;;
17451;SDS011;8843;48.838;9.324;2023-11-21T13:57:50;2.53;;;2.33;;
17451;SDS011;8843;48.838;9.324;2023-11-21T14:00:18;2.27;;;2.07;;
17451;SDS011;8843;48.838;9.324;2023-11-21T14:03:10;2.23;;;2.03;;
17451;SDS011;8843;48.838;9.324;2023-11-21T14:05:45;2.17;;;2.07;;
17451;SDS011;8843;48.838;9.324;2023-11-21T14:08:16;2.40;;;2.10;;
17451;SDS011;8843;48.838;9.324;2023-11-21T14:10:45;3.00;;;2.10;;
17451;SDS011;8843;48.838;9.324;2023-11-21T14:13:15;1.90;;;1.80;;
17451;SDS011;8843;48.838;9.324;2023-11-21T14:15:43;2.53;;;2.33;;
17451;SDS011;8843;48.838;9.324;2023-11-21T14:18:12;1.17;;;1.13;;
17451;SDS011;8843;48.838;9.324;2023-11-21T14:20:42;3.20;;;1.20;;
17451;SDS011;8843;48.838;9.324;2023-11-21T14:23:09;1.33;;;1.23;;
17451;SDS011;8843;48.838;9.324;2023-11-21T14:25:37;2.13;;;1.27;;
17451;SDS011;8843;48.838;9.324;2023-11-21T14:28:04;1.20;;;1.10;;
17451;SDS011;8843;48.838;9.324;2023-11-21T14:30:32;1.43;;;1.30;;
17451;SDS011;8843;48.838;9.324;2023-11-21T14:33:01;1.30;;;1.20;;
17451;SDS011;8843;48.838;9.324;2023-11-21T14:35:29;1.90;;;1.33;;
17451;SDS011;8843;48.838;9.324;2023-11-21T14:37:57;1.70;;;1.40;;
17451;SDS011;8843;48.838;9.324;2023-11-21T14:40:25;1.87;;;1.40;;
17451;SDS011;8843;48.838;9.324;2023-11-21T14:42:58;3.23;;;1.20;;
17451;SDS011;8843;48.838;9.324;2023-11-21T14:45:25;1.80;;;1.50;;
17451;SDS011;8843;48.838;9.324;2023-11-21T14:47:53;1.80;;;1.20;;
17451;SDS011;8843;48.838;9.324;2023-11-21T14:50:32;1.83;;;1.20;;
17451;SDS011;8843;48.838;9.324;2023-11-21T14:53:15;1.27;;;1.17;;
17451;SDS011;8843;48.838;9.324;2023-11-21T14:55:48;1.20;;;1.10;;
17451;SDS011;8843;48.838;9.324;2023-11-21T14:58:22;1.20;;;1.20;;
17451;SDS011;8843;48.838;9.324;2023-11-21T15:00:54;3.17;;;1.37;;
17451;SDS011;8843;48.838;9.324;2023-11-21T15:03:25;1.00;;;1.00;;
17451;SDS011;8843;48.838;9.324;2023-11-21T15:06:16;1.33;;;1.23;;
17451;SDS011;8843;48.838;9.324;2023-11-21T15:08:53;1.33;;;1.23;;